• Join FlightAware (Why Join?)
  • Login
  • US Flag 
01:35AM EDT


 

Airport Tracker/Info


-or-


 

Live Flight TrackerFlight Track Log ✈ N717HD ✈ 20-Apr-2012 ✈ KFLL - KHDC

Flight Track Log - Related Links

Times and Time Zones

All times are in EDT time to prevent confusion due to time zone crossing. See the N717HD flight status page for this flight to view local times or setup timezone preferences in your user account.

Time Position Orientation Groundspeed Altitude Reporting Facility
EDT Latitude Longitude Course Direction KTS MPH feet Rate Location/Type
11:43AM 26.0750 -80.1367 85° East 174 200 700  Level Miami Center
11:43AM 26.0778 -80.0975 80° East 184 212 2,400 2,400 Climbing Miami Center
11:44AM 26.0875 -80.0375 24° Northeast 198 228 4,900 1,260 Climbing Miami Center
11:45AM 26.1444 -80.0089 318° Northwest 281 323 5,000  Climbing Miami Center
11:46AM 26.2019 -80.0661 287° West 276 318 5,000 1,380 Level Miami Center
11:47AM 26.2231 -80.1408 285° West 234 269 7,900 2,100 Climbing Miami Center
11:48AM 26.2344 -80.1897 281° West 245 282 8,900 540 Climbing Miami Center
11:49AM 26.2494 -80.2733 279° West 278 320 8,900  Level Miami Center
11:50AM 26.2619 -80.3619 278° West 267 307 9,000  Climbing Miami Center
11:51AM 26.2706 -80.4292 280° West 256 295 9,000 1,560 Level Miami Center
11:52AM 26.2833 -80.5086 285° West 243 280 12,200 2,700 Climbing Miami Center
11:53AM 26.2967 -80.5644 306° West 223 257 14,500 2,220 Climbing Miami Center
11:54AM 26.3367 -80.6258 309° West 217 250 16,700 1,800 Climbing Miami Center
11:55AM 26.3731 -80.6758 311° West 224 258 18,200 1,620 Climbing Miami Center
11:56AM 26.4156 -80.7306 329° Northwest 224 258 20,000 1,560 Climbing Miami Center
11:57AM 26.4628 -80.7622 330° Northwest 219 252 21,400 1,380 Climbing Miami Center
11:58AM 26.5242 -80.8014 332° Northwest 219 252 22,800 1,260 Climbing Miami Center
11:59AM 26.5778 -80.8333 326° Northwest 235 270 24,000 1,260 Climbing Miami Center
12:00PM 26.6411 -80.8819 325° Northwest 251 289 25,400 1,260 Climbing Miami Center
12:01PM 26.6942 -80.9233 327° Northwest 256 295 26,600 1,200 Climbing Miami Center
12:02PM 26.7617 -80.9722 328° Northwest 262 302 27,900 1,500 Climbing Miami Center
12:03PM 26.8150 -81.0089 329° Northwest 257 296 29,600 1,500 Climbing Miami Center
12:04PM 26.8703 -81.0458 334° Northwest 251 289 31,000 1,320 Climbing Miami Center
12:05PM 26.9339 -81.0808 319° Northwest 235 270 32,300 1,020 Climbing Miami Center
12:06PM 26.9808 -81.1267 321° Northwest 230 265 33,100 840 Climbing Miami Center
12:07PM 27.0314 -81.1728 317° Northwest 230 265 34,000 840 Climbing Miami Center
12:08PM 27.0800 -81.2236 294° West 236 272 34,800 840 Climbing Miami Center
12:09PM 27.1053 -81.2875 284° West 229 264 35,700 900 Climbing Miami Center
12:10PM 27.1200 -81.3533 286° West 223 257 36,600 780 Climbing Miami Center
12:11PM 27.1367 -81.4194 286° West 218 251 37,300 660 Climbing Miami Center
12:12PM 27.1533 -81.4853 284° West 224 258 38,000 300 Climbing Miami Center
12:13PM 27.1697 -81.5608 287° West 230 265 38,000  Level Miami Center
12:14PM 27.1883 -81.6314 285° West 254 292 38,000  Level Miami Center
12:15PM 27.2103 -81.7236 285° West 268 308 38,000  Level Miami Center
12:16PM 27.2303 -81.8083 284° West 283 326 38,000  Level Miami Center
12:17PM 27.2503 -81.8956 286° West 288 331 38,000  Level Miami Center
12:18PM 27.2706 -81.9758 284° West 293 337 38,100 600 Climbing Miami Center
12:19PM 27.2883 -82.0583 285° West 293 337 39,200 900 Climbing Miami Center
12:20PM 27.3083 -82.1411 285° West 270 311 39,900 360 Climbing Miami Center
12:21PM 27.3264 -82.2167 284° West 257 296 40,000  Climbing Miami Center
12:22PM 27.3444 -82.2969 284° West 257 296 40,000  Level Miami Center
12:23PM 27.3603 -82.3703 284° West 268 308 40,000  Level Miami Center
12:24PM 27.3781 -82.4528 285° West 276 318 40,000  Level Miami Center
12:25PM 27.3994 -82.5450 285° West 282 325 40,000  Level Miami Center
12:26PM 27.4192 -82.6278 281° West 282 325 40,000  Level Miami Center
12:27PM 27.4344 -82.7150 281° West 282 325 40,000  Level Miami Center
12:28PM 27.4481 -82.7906 283° West 282 325 40,000  Level Miami Center
12:29PM 27.4653 -82.8758 283° West 282 325 40,000  Level Miami Center
12:30PM 27.4825 -82.9608 280° West 282 325 40,000  Level Miami Center
12:31PM 27.4956 -83.0458 283° West 277 319 40,000  Level Miami Center
12:32PM 27.5128 -83.1308 280° West 277 319 40,000  Level Miami Center
12:33PM 27.5258 -83.2158 282° West 277 319 40,000  Level Miami Center
12:34PM 27.5408 -83.2986 284° West 277 319 40,000  Level Miami Center
12:35PM 27.5600 -83.3861 282° West 277 319 40,000  Level Miami Center
12:36PM 27.5750 -83.4689 280° West 277 319 40,000  Level Miami Center
12:37PM 27.5878 -83.5517 283° West 277 319 40,000  Level Miami Center
12:38PM 27.6047 -83.6369 281° West 277 319 40,000  Level Miami Center
12:39PM 27.6194 -83.7197 280° West 277 319 40,000  Level Miami Center
12:40PM 27.6322 -83.8025 282° West 277 319 40,000  Level Miami Center
12:41PM 27.6489 -83.8878 280° West 277 319 40,000  Level Miami Center
12:42PM 27.6617 -83.9706 281° West 277 319 40,000  Level Miami Center
12:43PM 27.6761 -84.0533 284° West 277 319 40,000  Level Miami Center
12:44PM 27.6950 -84.1364 279° West 277 319 40,000  Level Miami Center
12:45PM 27.7072 -84.2217 282° West 277 319 40,000  Level Miami Center
12:47PM 27.7444 -84.4283 280° West 280 322 40,000  Level Jacksonville Center
12:48PM 27.7581 -84.5128 282° West 280 322 40,000  Level Jacksonville Center
12:49PM 27.7736 -84.5975 280° West 280 322 40,000  Level Jacksonville Center
12:50PM 27.7869 -84.6844 277° West 280 322 40,000  Level Jacksonville Center
12:51PM 27.7961 -84.7669 287° West 275 316 40,000  Level Jacksonville Center
12:52PM 27.8158 -84.8422 279° West 281 323 40,000  Level Jacksonville Center
12:53PM 27.8292 -84.9339 282° West 275 316 40,000  Level Jacksonville Center
12:54PM 27.8444 -85.0142 279° West 276 318 40,000  Level Jacksonville Center
12:55PM 27.8575 -85.1036 282° West 282 325 40,000  Level Jacksonville Center
12:56PM 27.8728 -85.1883 281° West 287 330 40,000  Level Jacksonville Center
12:57PM 27.8881 -85.2756 289° West 285 328 40,000  Level Jacksonville Center
12:58PM 27.9136 -85.3608 290° West 280 322 40,000  Level Jacksonville Center
12:59PM 27.9411 -85.4483 289° West 286 329 40,000  Level Jacksonville Center
01:00PM 27.9664 -85.5336 290° West 286 329 40,000  Level Jacksonville Center
01:01PM 27.9919 -85.6117 288° West 281 323 40,000  Level Jacksonville Center
01:02PM 28.0172 -85.6994 289° West 286 329 40,000  Level Jacksonville Center
01:03PM 28.0425 -85.7825 289° West 291 335 40,000  Level Jacksonville Center
01:04PM 28.0675 -85.8656 289° West 285 328 40,000  Level Jacksonville Center
01:05PM 28.0928 -85.9508 288° West 290 334 40,000  Level Jacksonville Center
01:06PM 28.1178 -86.0364 290° West 284 327 40,000  Level Jacksonville Center
01:07PM 28.1450 -86.1219 287° West 289 333 40,000  Level Jacksonville Center
01:08PM 28.1678 -86.2075 289° West 289 333 40,000  Level Jacksonville Center
01:09PM 28.1928 -86.2883 288° West 283 326 40,000  Level Jacksonville Center
01:10PM 28.2158 -86.3667 289° West 283 326 40,000  Level Jacksonville Center
01:11PM 28.2425 -86.4572 287° West 290 334 40,000  Level Jacksonville Center
01:12PM 28.2633 -86.5333 290° West 278 320 40,000  Level Jacksonville Center
01:13PM 28.2919 -86.6214 288° West 286 329 40,000  Level Jacksonville Center
01:14PM 28.3167 -86.7072 289° West 286 329 40,000  Level Jacksonville Center
01:15PM 28.3414 -86.7883 287° West 286 329 40,000  Level Jacksonville Center
01:16PM 28.3639 -86.8719 290° West 281 323 40,000  Level Jacksonville Center
01:17PM 28.3903 -86.9553 287° West 287 330 40,000  Level Jacksonville Center
01:18PM 28.4128 -87.0367 288° West 282 325 40,000  Level Jacksonville Center
01:19PM 28.4372 -87.1225 289° West 282 325 40,000  Level Jacksonville Center
01:20PM 28.4617 -87.2039 289° West 287 330 40,000  Level Jacksonville Center
01:21PM 28.4878 -87.2900 287° West 287 330 40,000  Level Jacksonville Center
01:23PM 28.5269 -87.4353 292° West 280 322 40,000  Level Houston Center
01:24PM 28.5614 -87.5333 297° West 285 328 40,000  Level Houston Center
01:25PM 28.6061 -87.6333 270° West 348 400 40,000  Level Houston Center
01:26PM 28.6058 -87.6972 288° West 275 316 40,000  Level Houston Center
01:27PM 28.6292 -87.7792 287° West 269 310 40,000  Level Houston Center
01:28PM 28.6500 -87.8589 285° West 276 318 40,000  Level Houston Center
01:29PM 28.6689 -87.9386 297° West 270 311 40,000  Level Houston Center
01:30PM 28.7022 -88.0133 297° West 285 328 40,000  Level Houston Center
01:31PM 28.7378 -88.0928 316° Northwest 270 311 40,000  Level Houston Center
01:32PM 28.7936 -88.1547 308° West 264 304 40,000  Level Houston Center
01:33PM 28.8436 -88.2267 313° West 278 320 40,000  Level Houston Center
01:34PM 28.8994 -88.2961 314° West 283 326 40,000  Level Houston Center
01:35PM 28.9533 -88.3608 311° West 288 331 40,000 -180 Level Houston Center
01:36PM 29.0072 -88.4328 312° West 288 331 39,700 -960 Descending Houston Center
01:37PM 29.0653 -88.5069 311° West 298 343 38,100 -1,500 Descending Houston Center
01:38PM 29.1236 -88.5836 311° West 313 360 36,700 -1,500 Descending Houston Center
01:39PM 29.1836 -88.6628 312° West 323 372 35,200 -1,500 Descending Houston Center
01:40PM 29.2461 -88.7419 312° West 328 377 33,700 -1,560 Descending Houston Center
01:41PM 29.3083 -88.8214 312° West 328 377 32,100 -1,620 Descending Houston Center
01:42PM 29.3706 -88.9006 311° West 333 383 30,500 -1,680 Descending Houston Center
01:43PM 29.4306 -88.9800 311° West 333 383 28,800 -1,800 Descending Houston Center
01:44PM 29.4969 -89.0667 312° West 339 390 27,000 -1,800 Descending Houston Center
01:45PM 29.5653 -89.1533 312° West 353 406 25,200 -1,800 Descending Houston Center
01:46PM 29.6317 -89.2378 310° West 359 413 23,400 -1,680 Descending Houston Center
01:47PM 29.7064 -89.3411 311° West 366 421 21,700 -1,620 Descending Houston Center
01:48PM 29.7533 -89.4025 311° West 366 421 20,600 -1,620 Descending Houston Center
01:49PM 29.8175 -89.4872 313° West 365 420 19,000 -1,500 Descending Houston Center
01:50PM 29.8961 -89.5861 308° West 364 419 17,300 -1,440 Descending Houston Center
01:51PM 29.9475 -89.6619 312° West 350 403 16,100 -720 Descending Houston Center
01:52PM 30.0114 -89.7444 311° West 340 391 16,000 -60 Descending Houston Center
01:53PM 30.0731 -89.8275 310° West 325 374 16,000 -300 Level Houston Center
01:54PM 30.1283 -89.9033 312° West 322 371 15,400 -1,140 Descending Houston Center
01:55PM 30.1942 -89.9886 310° West 345 397 13,800 -1,920 Descending Houston Center
01:56PM 30.2536 -90.0694 282° West 334 384 11,600 -2,280 Descending Houston Center
01:57PM 30.2714 -90.1700 281° West 300 345 9,300 -2,160 Descending Houston Center
01:58PM 30.2869 -90.2614 282° West 287 330 7,300 -1,920 Descending Houston Center
01:59PM 30.3025 -90.3453 330° Northwest 297 342 5,300 -1,860 Descending Houston Center
02:00PM 30.3717 -90.3925 North 275 316 3,600 -1,500 Descending Houston Center
02:01PM 30.4428 -90.3917 24° Northeast 292 336 2,600 -720 Descending Houston Center
02:02PM 30.5194 -90.3522 331° Northwest 287 330 2,200 -300 Descending Houston Center
02:03PM 30.5825 -90.3922 206° Southwest 273 314 2,000 -360 Descending Houston Center
02:04PM 30.5244 -90.4244 22° Northeast 274 315 1,500 -600 Descending Houston Center
02:05PM 30.5453 -90.4144 209° Southwest 149 171 900 -600 Descending Houston Center
02:06PM 30.5222 -90.4292 209° Southwest 117 135 400 -540 Descending Houston Center